createdAt,value
2018-12-26T00:00:44.784Z,4.20
2018-12-26T00:03:18.324Z,4.20
2018-12-26T00:05:51.185Z,4.10
2018-12-26T00:08:25.167Z,4.10
2018-12-26T00:10:57.503Z,4.10
2018-12-26T00:13:30.304Z,4.10
2018-12-26T00:16:02.683Z,4.00
2018-12-26T00:18:36.077Z,3.90
2018-12-26T00:21:09.345Z,3.90
2018-12-26T00:23:42.426Z,3.90
2018-12-26T00:26:14.604Z,4.00
2018-12-26T00:28:48.144Z,4.00
2018-12-26T00:31:20.745Z,4.00
2018-12-26T00:33:53.544Z,4.00
2018-12-26T00:36:25.763Z,3.90
2018-12-26T00:38:57.703Z,4.00
2018-12-26T00:41:31.428Z,3.80
2018-12-26T00:44:04.883Z,3.80
2018-12-26T00:46:36.683Z,3.80
2018-12-26T00:49:09.882Z,3.80
2018-12-26T00:51:42.863Z,3.70
2018-12-26T00:54:15.903Z,3.70
2018-12-26T00:56:48.285Z,3.80
2018-12-26T00:59:23.963Z,3.80
2018-12-26T01:01:56.463Z,3.80
2018-12-26T01:04:29.044Z,3.80
2018-12-26T01:07:01.603Z,3.80
2018-12-26T01:09:34.007Z,3.70
2018-12-26T01:12:06.264Z,3.70
2018-12-26T01:14:39.964Z,3.70
2018-12-26T01:17:12.423Z,3.60
2018-12-26T01:19:44.363Z,3.60
2018-12-26T01:22:16.823Z,3.70
2018-12-26T01:24:49.003Z,3.70
2018-12-26T01:27:22.023Z,3.70
2018-12-26T01:29:54.044Z,3.70
2018-12-26T01:32:26.203Z,3.60
2018-12-26T01:34:59.263Z,3.60
2018-12-26T01:37:32.523Z,3.70
2018-12-26T01:40:05.330Z,3.70
2018-12-26T01:42:37.286Z,3.80
2018-12-26T01:45:10.764Z,3.80
2018-12-26T01:47:43.846Z,3.70
2018-12-26T01:50:16.025Z,3.70
2018-12-26T01:52:48.603Z,3.80
2018-12-26T01:55:21.383Z,3.80
2018-12-26T01:57:54.442Z,3.70
2018-12-26T02:00:27.323Z,3.60
2018-12-26T02:02:59.683Z,3.60
2018-12-26T02:05:32.422Z,3.50
2018-12-26T02:08:06.062Z,3.40
2018-12-26T02:10:38.603Z,3.50
2018-12-26T02:13:11.443Z,3.50
2018-12-26T02:15:44.443Z,3.50
2018-12-26T02:18:17.384Z,3.50
2018-12-26T02:20:50.262Z,3.50
2018-12-26T02:23:22.385Z,3.50
2018-12-26T02:25:54.844Z,3.50
2018-12-26T02:28:26.845Z,3.40
2018-12-26T02:30:59.864Z,3.50
2018-12-26T02:33:32.303Z,3.60
2018-12-26T02:36:04.529Z,3.60
2018-12-26T02:38:37.223Z,3.50
2018-12-26T02:41:10.545Z,3.50
2018-12-26T02:43:42.704Z,3.40
2018-12-26T02:46:15.662Z,3.40
2018-12-26T02:48:49.303Z,3.40
2018-12-26T02:51:21.884Z,3.40
2018-12-26T02:53:54.164Z,3.40
2018-12-26T02:56:26.631Z,3.30
2018-12-26T02:58:59.568Z,3.30
2018-12-26T03:01:32.164Z,3.30
2018-12-26T03:04:04.503Z,3.30
2018-12-26T03:06:36.824Z,3.20
2018-12-26T03:09:10.503Z,3.30
2018-12-26T03:11:44.484Z,3.30
2018-12-26T03:14:17.024Z,3.30
2018-12-26T03:16:49.922Z,3.40
2018-12-26T03:19:22.685Z,3.40
2018-12-26T03:21:55.384Z,3.30
2018-12-26T03:24:27.646Z,3.30
2018-12-26T03:27:00.366Z,3.20
2018-12-26T03:29:33.707Z,3.20
2018-12-26T03:32:06.667Z,3.10
2018-12-26T03:34:39.544Z,3.10
2018-12-26T03:37:11.746Z,3.10
2018-12-26T03:39:44.852Z,3.10
2018-12-26T03:42:17.569Z,3.10
2018-12-26T03:44:50.646Z,3.10
2018-12-26T03:47:22.526Z,3.10
2018-12-26T03:49:54.026Z,3.10
2018-12-26T03:52:26.688Z,3.10
2018-12-26T03:54:59.807Z,3.10
2018-12-26T03:57:32.846Z,3.10
2018-12-26T04:00:06.088Z,3.00
2018-12-26T04:02:38.432Z,3.00
2018-12-26T04:05:10.747Z,3.00
2018-12-26T04:07:43.928Z,3.00
2018-12-26T04:10:17.007Z,3.00
2018-12-26T04:12:50.986Z,3.00
2018-12-26T04:15:24.126Z,3.00
2018-12-26T04:17:56.649Z,3.00
2018-12-26T04:20:29.649Z,3.00
2018-12-26T04:23:02.112Z,2.90
2018-12-26T04:25:34.925Z,2.90
2018-12-26T04:28:07.427Z,3.00
2018-12-26T04:30:40.468Z,3.10
2018-12-26T04:33:13.746Z,3.10
2018-12-26T04:35:47.065Z,3.00
2018-12-26T04:38:19.865Z,3.00
2018-12-26T04:40:52.446Z,3.00
2018-12-26T04:43:25.406Z,2.90
2018-12-26T04:45:58.547Z,3.00
2018-12-26T04:48:31.726Z,3.00
2018-12-26T04:51:04.386Z,2.90
2018-12-26T04:53:37.285Z,2.80
2018-12-26T04:56:10.346Z,2.80
2018-12-26T04:58:43.846Z,2.80
2018-12-26T05:01:15.746Z,2.80
2018-12-26T05:03:48.126Z,2.90
2018-12-26T05:06:21.491Z,2.90
2018-12-26T05:08:53.845Z,3.00
2018-12-26T05:11:27.186Z,2.90
2018-12-26T05:13:59.325Z,2.90
2018-12-26T05:16:31.847Z,2.90
2018-12-26T05:19:04.186Z,2.90
2018-12-26T05:21:36.606Z,2.90
2018-12-26T05:24:09.065Z,2.90
2018-12-26T05:26:41.893Z,2.80
2018-12-26T05:29:14.266Z,2.90
2018-12-26T05:31:46.829Z,3.00
2018-12-26T05:34:18.706Z,3.10
2018-12-26T05:36:51.466Z,3.10
2018-12-26T05:39:23.705Z,3.10
2018-12-26T05:41:56.706Z,3.10
2018-12-26T05:44:29.485Z,3.10
2018-12-26T05:47:02.265Z,3.20
2018-12-26T05:49:35.106Z,3.30
2018-12-26T05:52:08.013Z,3.30
2018-12-26T05:54:41.246Z,3.40
2018-12-26T05:57:14.427Z,3.40
2018-12-26T05:59:47.149Z,3.40
2018-12-26T06:02:20.026Z,3.40
2018-12-26T06:04:52.225Z,3.40
2018-12-26T06:07:25.486Z,3.30
2018-12-26T06:09:57.809Z,3.30
2018-12-26T06:12:29.884Z,3.20
2018-12-26T06:15:02.886Z,3.10
2018-12-26T06:17:36.485Z,3.10
2018-12-26T06:20:10.086Z,3.00
2018-12-26T06:22:42.846Z,3.00
2018-12-26T06:25:15.687Z,3.00
2018-12-26T06:27:51.583Z,2.90
2018-12-26T06:30:22.104Z,2.90
2018-12-26T06:32:55.004Z,2.80
2018-12-26T06:35:28.105Z,2.80
2018-12-26T06:38:01.556Z,2.80
2018-12-26T06:40:34.145Z,2.80
2018-12-26T06:43:06.765Z,2.70
2018-12-26T06:45:40.125Z,2.70
2018-12-26T06:48:12.605Z,2.80
2018-12-26T06:50:45.426Z,2.80
2018-12-26T06:53:17.785Z,2.70
2018-12-26T06:55:50.365Z,2.70
2018-12-26T06:58:22.348Z,2.60
2018-12-26T07:00:55.525Z,2.70
2018-12-26T07:03:27.787Z,2.70
2018-12-26T07:06:00.265Z,2.70
2018-12-26T07:08:32.164Z,2.70
2018-12-26T07:11:03.847Z,2.70
2018-12-26T07:13:36.967Z,2.80
2018-12-26T07:16:10.105Z,2.80
2018-12-26T07:18:43.788Z,2.70
2018-12-26T07:21:16.332Z,2.70
2018-12-26T07:23:49.029Z,2.70
2018-12-26T07:26:21.285Z,2.70
2018-12-26T07:28:53.630Z,2.70
2018-12-26T07:31:26.666Z,2.70
2018-12-26T07:33:59.006Z,2.80
2018-12-26T07:36:31.525Z,2.80
2018-12-26T07:39:04.566Z,2.90
2018-12-26T07:41:36.739Z,2.90
2018-12-26T07:44:10.066Z,2.90
2018-12-26T07:46:42.266Z,2.90
2018-12-26T07:49:14.846Z,3.00
2018-12-26T07:51:47.865Z,3.00
2018-12-26T07:54:20.749Z,3.10
2018-12-26T07:56:54.047Z,3.20
2018-12-26T07:59:26.950Z,3.20
2018-12-26T08:02:00.086Z,3.20
2018-12-26T08:04:32.729Z,3.30
2018-12-26T08:07:04.806Z,3.20
2018-12-26T08:09:36.725Z,3.20
2018-12-26T08:12:09.705Z,3.10
2018-12-26T08:14:41.986Z,3.20
2018-12-26T08:17:13.566Z,3.20
2018-12-26T08:19:46.127Z,3.10
2018-12-26T08:22:18.585Z,3.10
2018-12-26T08:24:51.386Z,3.10
2018-12-26T08:27:24.650Z,3.10
2018-12-26T08:29:57.966Z,3.10
2018-12-26T08:32:30.246Z,3.20
2018-12-26T08:35:03.467Z,3.10
2018-12-26T08:37:36.305Z,3.10
2018-12-26T08:40:09.826Z,3.10
2018-12-26T08:42:42.387Z,3.20
2018-12-26T08:45:14.973Z,3.10
2018-12-26T08:47:48.105Z,3.10
2018-12-26T08:50:20.886Z,3.20
2018-12-26T08:52:54.269Z,3.10
2018-12-26T08:55:26.786Z,3.00
2018-12-26T08:57:59.805Z,3.10
2018-12-26T09:00:32.286Z,3.10
2018-12-26T09:03:05.305Z,3.10
2018-12-26T09:05:37.324Z,3.20
2018-12-26T09:08:10.028Z,3.20
2018-12-26T09:10:42.846Z,3.30
2018-12-26T09:13:14.845Z,3.40
2018-12-26T09:15:47.568Z,3.50
2018-12-26T09:18:20.325Z,3.50
2018-12-26T09:20:54.125Z,3.50
2018-12-26T09:23:27.245Z,3.60
2018-12-26T09:26:03.588Z,3.60
2018-12-26T09:28:43.827Z,3.70
2018-12-26T09:31:12.885Z,3.70
2018-12-26T09:33:44.806Z,3.80
2018-12-26T09:36:17.585Z,3.90
2018-12-26T09:38:50.404Z,3.90
2018-12-26T09:41:24.024Z,4.00
2018-12-26T09:43:56.584Z,4.10
2018-12-26T09:46:28.964Z,4.10
2018-12-26T09:49:00.925Z,4.20
2018-12-26T09:51:33.464Z,4.30
2018-12-26T09:54:06.445Z,4.40
2018-12-26T09:56:38.259Z,4.50
2018-12-26T09:59:11.485Z,4.70
2018-12-26T10:01:44.625Z,4.70
2018-12-26T10:04:17.444Z,4.80
2018-12-26T10:06:49.304Z,4.90
2018-12-26T10:09:22.085Z,5.00
2018-12-26T10:11:55.145Z,5.30
2018-12-26T10:14:26.844Z,5.40
2018-12-26T10:16:59.044Z,5.70
2018-12-26T10:19:32.387Z,5.80
2018-12-26T10:22:04.443Z,5.90
2018-12-26T10:24:37.047Z,5.90
2018-12-26T10:27:10.364Z,6.00
2018-12-26T10:29:42.665Z,6.20
2018-12-26T10:32:15.105Z,6.40
2018-12-26T10:34:48.225Z,6.60
2018-12-26T10:37:21.174Z,6.90
2018-12-26T10:39:53.564Z,7.00
2018-12-26T10:42:25.888Z,7.30
2018-12-26T10:44:59.403Z,7.50
2018-12-26T10:47:32.224Z,7.80
2018-12-26T10:50:05.223Z,7.90
2018-12-26T10:52:37.766Z,8.00
2018-12-26T10:55:11.828Z,8.00
2018-12-26T10:57:45.246Z,7.70
2018-12-26T11:00:18.445Z,7.50
2018-12-26T11:02:50.404Z,7.10
2018-12-26T11:05:29.538Z,7.00
2018-12-26T11:07:57.884Z,6.80
2018-12-26T11:10:30.684Z,6.80
2018-12-26T11:13:02.885Z,6.70
2018-12-26T11:15:35.044Z,6.50
2018-12-26T11:18:07.963Z,6.20
2018-12-26T11:20:40.185Z,6.10
2018-12-26T11:23:13.064Z,5.90
2018-12-26T11:25:46.205Z,5.90
2018-12-26T11:28:19.245Z,5.90
2018-12-26T11:30:51.944Z,5.80
2018-12-26T11:33:24.625Z,5.80
2018-12-26T11:35:57.365Z,5.80
2018-12-26T11:38:29.985Z,5.70
2018-12-26T11:41:02.366Z,5.60
2018-12-26T11:43:35.926Z,5.40
2018-12-26T11:46:09.204Z,5.40
2018-12-26T11:48:41.445Z,5.30
2018-12-26T11:51:14.406Z,5.20
2018-12-26T11:53:47.705Z,5.10
2018-12-26T11:56:20.225Z,5.10
2018-12-26T11:58:52.443Z,5.10
2018-12-26T12:01:25.187Z,5.10
2018-12-26T12:03:58.058Z,5.00
2018-12-26T12:06:31.118Z,5.00
2018-12-26T12:09:04.499Z,5.10
2018-12-26T12:11:37.457Z,5.20
2018-12-26T12:14:09.858Z,5.30
2018-12-26T12:16:42.688Z,5.30
2018-12-26T12:19:14.818Z,5.30
2018-12-26T12:21:47.857Z,5.20
2018-12-26T12:24:20.682Z,5.20
2018-12-26T12:26:53.702Z,5.10
2018-12-26T12:29:26.123Z,5.10
2018-12-26T12:31:58.418Z,5.10
2018-12-26T12:34:31.418Z,5.20
2018-12-26T12:37:04.218Z,5.20
2018-12-26T12:39:36.197Z,5.20
2018-12-26T12:42:09.057Z,5.20
2018-12-26T12:44:41.398Z,5.20
2018-12-26T12:47:14.397Z,5.20
2018-12-26T12:49:47.517Z,5.20
2018-12-26T12:52:19.978Z,5.10
2018-12-26T12:54:52.397Z,5.10
2018-12-26T12:57:24.957Z,5.10
2018-12-26T12:59:57.796Z,5.00
2018-12-26T13:02:30.396Z,5.10
2018-12-26T13:05:03.497Z,5.00
2018-12-26T13:07:37.036Z,5.00
2018-12-26T13:10:09.437Z,5.00
2018-12-26T13:12:42.296Z,4.90
2018-12-26T13:15:15.298Z,4.90
2018-12-26T13:17:48.956Z,4.90
2018-12-26T13:20:21.724Z,4.90
2018-12-26T13:22:55.076Z,5.00
2018-12-26T13:25:27.656Z,5.00
2018-12-26T13:28:00.236Z,5.10
2018-12-26T13:30:32.395Z,5.10
2018-12-26T13:33:06.215Z,5.10
2018-12-26T13:35:38.736Z,5.10
2018-12-26T13:38:11.811Z,5.10
2018-12-26T13:40:43.915Z,5.10
2018-12-26T13:43:16.487Z,5.10
2018-12-26T13:45:49.188Z,5.20
2018-12-26T13:48:21.629Z,5.20
2018-12-26T13:50:53.547Z,5.20
2018-12-26T13:53:26.668Z,5.20
2018-12-26T13:55:59.648Z,5.20
2018-12-26T13:58:31.665Z,5.30
2018-12-26T14:01:03.975Z,5.30
2018-12-26T14:03:36.314Z,5.40
2018-12-26T14:06:08.010Z,5.30
2018-12-26T14:08:40.466Z,5.40
2018-12-26T14:11:12.786Z,5.50
2018-12-26T14:13:45.855Z,5.40
2018-12-26T14:16:18.254Z,5.40
2018-12-26T14:18:50.617Z,5.40
2018-12-26T14:21:22.818Z,5.40
2018-12-26T14:23:55.983Z,5.40
2018-12-26T14:26:28.021Z,5.30
2018-12-26T14:29:01.088Z,5.20
2018-12-26T14:31:33.668Z,5.20
2018-12-26T14:34:06.146Z,5.20
2018-12-26T14:36:39.106Z,5.20
2018-12-26T14:39:13.085Z,5.20
2018-12-26T14:41:45.767Z,5.20
2018-12-26T14:44:18.124Z,5.20
2018-12-26T14:46:50.687Z,5.20
2018-12-26T14:49:23.006Z,5.20
2018-12-26T14:51:55.487Z,5.20
2018-12-26T14:54:28.187Z,5.30
2018-12-26T14:57:01.247Z,5.30
2018-12-26T14:59:34.751Z,5.30
2018-12-26T15:02:06.859Z,5.30
2018-12-26T15:04:39.186Z,5.30
2018-12-26T15:07:12.570Z,5.30
2018-12-26T15:09:46.185Z,5.30
2018-12-26T15:12:18.745Z,5.20
2018-12-26T15:14:51.565Z,5.20
2018-12-26T15:17:24.166Z,5.30
2018-12-26T15:19:57.822Z,5.40
2018-12-26T15:22:30.043Z,5.40
2018-12-26T15:25:02.684Z,5.40
2018-12-26T15:27:35.983Z,5.30
2018-12-26T15:30:09.329Z,5.30
2018-12-26T15:32:41.903Z,5.30
2018-12-26T15:35:14.383Z,5.30
2018-12-26T15:37:47.443Z,5.30
2018-12-26T15:40:20.624Z,5.30
2018-12-26T15:42:54.006Z,5.30
2018-12-26T15:45:26.347Z,5.30
2018-12-26T15:47:58.685Z,5.30
2018-12-26T15:50:33.354Z,5.30
2018-12-26T15:53:06.362Z,5.30
2018-12-26T15:55:38.664Z,5.30
2018-12-26T15:58:11.284Z,5.30
2018-12-26T16:00:44.106Z,5.20
2018-12-26T16:03:17.444Z,5.10
2018-12-26T16:05:49.904Z,5.20
2018-12-26T16:08:21.827Z,5.00
2018-12-26T16:10:54.047Z,5.00
2018-12-26T16:13:26.523Z,5.00
2018-12-26T16:15:59.764Z,4.90
2018-12-26T16:18:33.144Z,5.00
2018-12-26T16:21:05.905Z,5.00
2018-12-26T16:23:38.684Z,5.00
2018-12-26T16:26:11.664Z,5.00
2018-12-26T16:28:45.444Z,5.00
2018-12-26T16:31:17.864Z,4.90
2018-12-26T16:33:50.684Z,4.90
2018-12-26T16:36:23.804Z,4.90
2018-12-26T16:38:56.804Z,4.90
2018-12-26T16:41:30.144Z,5.00
2018-12-26T16:44:02.775Z,5.00
2018-12-26T16:46:35.504Z,4.90
2018-12-26T16:49:08.265Z,4.90
2018-12-26T16:51:41.707Z,4.80
2018-12-26T16:54:14.105Z,4.80
2018-12-26T16:56:46.525Z,4.80
2018-12-26T16:59:19.284Z,4.70
2018-12-26T17:01:52.624Z,4.70
2018-12-26T17:04:26.204Z,4.70
2018-12-26T17:06:58.565Z,4.70
2018-12-26T17:09:31.667Z,4.70
2018-12-26T17:12:03.984Z,4.70
2018-12-26T17:14:36.285Z,4.80
2018-12-26T17:17:09.412Z,4.70
2018-12-26T17:19:41.946Z,4.80
2018-12-26T17:22:13.967Z,4.80
2018-12-26T17:24:53.444Z,4.80
2018-12-26T17:27:25.790Z,4.80
2018-12-26T17:29:58.685Z,4.80
2018-12-26T17:32:31.247Z,4.80
2018-12-26T17:35:03.523Z,4.80
2018-12-26T17:37:36.885Z,4.80
2018-12-26T17:40:10.229Z,4.80
2018-12-26T17:42:43.383Z,4.70
2018-12-26T17:45:21.244Z,4.70
2018-12-26T17:47:56.078Z,4.70
2018-12-26T17:50:46.484Z,4.70
2018-12-26T17:53:30.305Z,4.70
2018-12-26T17:56:12.524Z,4.70
2018-12-26T17:59:06.104Z,4.70
2018-12-26T18:01:59.504Z,4.70
2018-12-26T18:04:31.565Z,4.70
2018-12-26T18:07:03.483Z,4.50
2018-12-26T18:09:36.265Z,4.40
2018-12-26T18:12:12.036Z,4.50
2018-12-26T18:14:44.465Z,4.50
2018-12-26T18:17:17.223Z,4.40
2018-12-26T18:19:51.084Z,4.50
2018-12-26T18:22:24.453Z,4.50
2018-12-26T18:24:56.624Z,4.40
2018-12-26T18:27:29.464Z,4.40
2018-12-26T18:30:02.723Z,4.40
2018-12-26T18:32:35.468Z,4.20
2018-12-26T18:35:08.804Z,4.10
2018-12-26T18:37:41.263Z,4.10
2018-12-26T18:40:15.003Z,4.00
2018-12-26T18:42:47.626Z,4.10
2018-12-26T18:45:21.365Z,4.00
2018-12-26T18:47:53.587Z,4.00
2018-12-26T18:50:26.548Z,3.90
2018-12-26T18:52:59.165Z,3.90
2018-12-26T18:55:31.944Z,3.90
2018-12-26T18:58:03.904Z,3.90
2018-12-26T19:00:37.445Z,3.90
2018-12-26T19:03:09.925Z,4.80
2018-12-26T19:05:43.005Z,3.90
2018-12-26T19:08:15.644Z,3.90
2018-12-26T19:10:48.226Z,4.00
2018-12-26T19:13:20.924Z,3.90
2018-12-26T19:15:54.005Z,3.90
2018-12-26T19:18:27.744Z,3.90
2018-12-26T19:20:58.544Z,4.00
2018-12-26T19:23:31.125Z,4.00
2018-12-26T19:26:03.881Z,4.00
2018-12-26T19:28:37.265Z,4.00
2018-12-26T19:31:10.366Z,4.00
2018-12-26T19:33:43.765Z,4.00
2018-12-26T19:36:17.565Z,3.90
2018-12-26T19:38:51.174Z,3.90
2018-12-26T19:41:23.785Z,3.80
2018-12-26T19:43:56.165Z,3.90
2018-12-26T19:46:28.865Z,3.80
2018-12-26T19:49:02.006Z,3.80
2018-12-26T19:51:34.864Z,3.80
2018-12-26T19:54:07.046Z,3.80
2018-12-26T19:56:39.965Z,3.80
2018-12-26T19:59:12.805Z,3.90
2018-12-26T20:01:48.253Z,3.90
2018-12-26T20:04:19.023Z,3.90
2018-12-26T20:06:51.825Z,3.90
2018-12-26T20:09:25.064Z,3.90
2018-12-26T20:12:00.604Z,3.90
2018-12-26T20:14:33.063Z,3.90
2018-12-26T20:17:06.544Z,3.90
2018-12-26T20:19:39.584Z,3.90
2018-12-26T20:22:12.025Z,4.00
2018-12-26T20:24:44.285Z,4.00
2018-12-26T20:27:15.925Z,4.00
2018-12-26T20:29:48.765Z,4.00
2018-12-26T20:32:21.183Z,3.90
2018-12-26T20:34:54.043Z,3.80
2018-12-26T20:37:27.744Z,3.70
2018-12-26T20:40:01.227Z,3.60
2018-12-26T20:42:33.565Z,3.50
2018-12-26T20:45:06.064Z,3.50
2018-12-26T20:47:38.724Z,3.50
2018-12-26T20:50:11.643Z,3.50
2018-12-26T20:52:44.244Z,3.60
2018-12-26T20:55:17.005Z,3.60
2018-12-26T20:57:49.768Z,3.70
2018-12-26T21:00:22.084Z,3.70
2018-12-26T21:02:54.485Z,3.70
2018-12-26T21:05:27.805Z,3.60
2018-12-26T21:08:01.403Z,3.60
2018-12-26T21:10:34.443Z,3.50
2018-12-26T21:13:07.004Z,3.50
2018-12-26T21:15:40.164Z,3.50
2018-12-26T21:18:12.943Z,3.50
2018-12-26T21:20:45.784Z,3.40
2018-12-26T21:23:18.683Z,3.40
2018-12-26T21:25:51.804Z,3.40
2018-12-26T21:28:24.544Z,3.40
2018-12-26T21:30:57.924Z,3.40
2018-12-26T21:33:30.207Z,3.30
2018-12-26T21:36:02.845Z,3.30
2018-12-26T21:38:36.163Z,3.30
2018-12-26T21:41:09.424Z,3.30
2018-12-26T21:43:43.105Z,3.30
2018-12-26T21:46:19.105Z,3.30
2018-12-26T21:48:52.464Z,3.30
2018-12-26T21:51:24.784Z,3.30
2018-12-26T21:53:58.205Z,3.40
2018-12-26T21:56:31.324Z,3.30
2018-12-26T21:59:04.704Z,3.40
2018-12-26T22:01:36.925Z,3.40
2018-12-26T22:04:09.885Z,3.40
2018-12-26T22:06:42.706Z,3.40
2018-12-26T22:09:14.906Z,3.30
2018-12-26T22:11:48.125Z,3.30
2018-12-26T22:14:20.403Z,3.30
2018-12-26T22:16:53.204Z,3.20
2018-12-26T22:19:26.365Z,3.20
2018-12-26T22:21:58.084Z,3.00
2018-12-26T22:24:30.706Z,2.90
2018-12-26T22:27:03.544Z,2.80
2018-12-26T22:29:35.843Z,2.80
2018-12-26T22:32:08.683Z,2.80
2018-12-26T22:34:40.723Z,2.80
2018-12-26T22:37:13.085Z,2.90
2018-12-26T22:39:45.487Z,2.90
2018-12-26T22:42:18.525Z,2.90
2018-12-26T22:44:51.124Z,2.90
2018-12-26T22:47:23.905Z,2.90
2018-12-26T22:49:56.146Z,2.90
2018-12-26T22:52:29.145Z,2.80
2018-12-26T22:55:01.664Z,2.80
2018-12-26T22:57:34.083Z,2.80
2018-12-26T23:00:07.963Z,2.70
2018-12-26T23:02:39.664Z,2.60
2018-12-26T23:05:12.985Z,2.60
2018-12-26T23:07:47.584Z,2.60
2018-12-26T23:10:20.683Z,2.50
2018-12-26T23:12:53.324Z,2.50
2018-12-26T23:15:26.284Z,2.50
2018-12-26T23:17:58.763Z,2.50
2018-12-26T23:20:32.908Z,2.50
2018-12-26T23:23:05.805Z,2.50
2018-12-26T23:25:38.746Z,2.50
2018-12-26T23:28:10.845Z,2.60
2018-12-26T23:30:44.566Z,2.60
2018-12-26T23:33:17.024Z,2.60
2018-12-26T23:35:50.045Z,2.60
2018-12-26T23:38:23.184Z,2.70
2018-12-26T23:40:56.483Z,2.70
2018-12-26T23:43:28.742Z,2.70
2018-12-26T23:46:01.843Z,2.60
2018-12-26T23:48:34.524Z,2.60
2018-12-26T23:51:08.265Z,2.70
2018-12-26T23:53:40.604Z,2.70
2018-12-26T23:56:13.503Z,2.70
2018-12-26T23:58:46.865Z,2.80
